createdAt,value
2019-04-20T00:01:34.391Z,10.73
2019-04-20T00:04:08.808Z,11.47
2019-04-20T00:06:41.656Z,10.40
2019-04-20T00:09:15.931Z,10.70
2019-04-20T00:11:51.717Z,12.83
2019-04-20T00:14:17.244Z,11.07
2019-04-20T00:16:44.194Z,13.60
2019-04-20T00:19:17.214Z,11.40
2019-04-20T00:21:53.694Z,11.60
2019-04-20T00:24:30.316Z,10.73
2019-04-20T00:27:15.865Z,10.57
2019-04-20T00:29:46.368Z,11.20
2019-04-20T00:32:13.432Z,10.73
2019-04-20T00:34:36.545Z,13.50
2019-04-20T00:37:02.470Z,11.87
2019-04-20T00:39:32.095Z,11.80
2019-04-20T00:42:06.672Z,12.40
2019-04-20T00:44:37.617Z,11.87
2019-04-20T00:47:16.959Z,16.60
2019-04-20T00:49:50.949Z,11.07
2019-04-20T00:54:39.064Z,9.73
2019-04-20T00:57:20.361Z,9.30
2019-04-20T00:59:59.219Z,8.73
2019-04-20T01:02:25.732Z,10.13
2019-04-20T01:04:58.035Z,10.40
2019-04-20T01:07:27.351Z,10.83
2019-04-20T01:10:05.061Z,12.50
2019-04-20T01:12:38.314Z,10.73
2019-04-20T01:15:11.874Z,11.40
2019-04-20T01:17:41.539Z,10.80
2019-04-20T01:20:12.533Z,10.03
2019-04-20T01:22:48.160Z,9.73
2019-04-20T01:25:23.726Z,8.80
2019-04-20T01:28:04.610Z,9.77
2019-04-20T01:30:25.177Z,9.77
2019-04-20T01:33:00.502Z,11.30
2019-04-20T01:35:35.602Z,9.03
2019-04-20T01:38:18.192Z,9.57
2019-04-20T01:40:23.147Z,9.53
2019-04-20T01:42:53.212Z,8.60
2019-04-20T01:45:29.315Z,12.97
2019-04-20T01:47:57.493Z,9.77
2019-04-20T01:50:29.707Z,9.50
2019-04-20T01:53:08.996Z,10.50
2019-04-20T01:55:49.374Z,9.47
2019-04-20T01:58:25.412Z,10.03
2019-04-20T02:00:42.086Z,9.27
2019-04-20T02:03:35.382Z,11.57
2019-04-20T02:06:09.853Z,10.80
2019-04-20T02:08:35.811Z,10.53
2019-04-20T02:11:07.642Z,10.60
2019-04-20T02:13:45.632Z,11.83
2019-04-20T02:16:17.987Z,12.07
2019-04-20T02:18:51.402Z,11.80
2019-04-20T02:21:30.012Z,13.67
2019-04-20T02:23:49.710Z,13.13
2019-04-20T02:26:16.034Z,12.80
2019-04-20T02:29:12.211Z,12.50
2019-04-20T02:32:05.076Z,12.83
2019-04-20T02:34:39.164Z,12.67
2019-04-20T02:37:13.903Z,12.47
2019-04-20T02:39:47.156Z,23.07
2019-04-20T02:42:20.355Z,13.00
2019-04-20T02:44:54.231Z,12.03
2019-04-20T02:47:21.619Z,13.57
2019-04-20T02:52:22.628Z,11.30
2019-04-20T02:54:52.743Z,11.90
2019-04-20T02:57:23.854Z,10.90
2019-04-20T03:02:10.229Z,9.83
2019-04-20T03:04:32.602Z,14.77
2019-04-20T03:07:09.318Z,10.97
2019-04-20T03:09:46.926Z,11.47
2019-04-20T03:12:23.808Z,12.47
2019-04-20T03:14:44.725Z,12.03
2019-04-20T03:17:22.733Z,11.27
2019-04-20T03:19:46.409Z,10.57
2019-04-20T03:22:35.319Z,23.07
2019-04-20T03:25:13.540Z,10.90
2019-04-20T03:27:25.119Z,10.70
2019-04-20T03:30:40.598Z,10.67
2019-04-20T03:33:02.405Z,9.43
2019-04-20T03:37:48.588Z,9.80
2019-04-20T03:40:12.894Z,11.33
2019-04-20T03:42:30.856Z,11.90
2019-04-20T03:45:07.683Z,10.93
2019-04-20T03:47:43.807Z,9.80
2019-04-20T03:50:25.050Z,9.77
2019-04-20T03:52:57.769Z,9.20
2019-04-20T03:55:26.229Z,10.53
2019-04-20T03:58:03.517Z,11.23
2019-04-20T04:00:50.369Z,11.03
2019-04-20T04:03:53.753Z,11.70
2019-04-20T04:08:55.800Z,10.77
2019-04-20T04:11:26.265Z,10.33
2019-04-20T04:13:43.811Z,10.20
2019-04-20T04:16:18.499Z,11.07
2019-04-20T04:18:54.436Z,10.47
2019-04-20T04:21:28.947Z,12.00
2019-04-20T04:24:05.854Z,12.13
2019-04-20T04:26:34.353Z,10.77
2019-04-20T04:29:12.676Z,12.00
2019-04-20T04:31:50.692Z,11.90
2019-04-20T04:34:12.408Z,11.00
2019-04-20T04:36:46.078Z,11.30
2019-04-20T04:39:22.820Z,13.90
2019-04-20T04:41:57.297Z,18.30
2019-04-20T04:44:14.595Z,15.43
2019-04-20T04:46:33.864Z,17.00
2019-04-20T04:49:09.645Z,15.83
2019-04-20T04:51:44.650Z,17.17
2019-04-20T04:54:16.481Z,23.90
2019-04-20T04:56:36.011Z,23.00
2019-04-20T04:59:06.476Z,19.17
2019-04-20T05:01:38.618Z,23.37
2019-04-20T05:04:33.920Z,19.53
2019-04-20T05:06:53.677Z,13.47
2019-04-20T05:09:14.845Z,15.07
2019-04-20T05:11:41.171Z,15.43
2019-04-20T05:14:16.992Z,21.47
2019-04-20T05:16:58.094Z,15.87
2019-04-20T05:19:36.995Z,21.00
2019-04-20T05:22:15.930Z,17.03
2019-04-20T05:24:34.853Z,15.13
2019-04-20T05:27:34.827Z,16.67
2019-04-20T05:29:44.824Z,16.50
2019-04-20T05:32:19.697Z,17.40
2019-04-20T05:35:12.189Z,13.00
2019-04-20T05:37:43.498Z,15.37
2019-04-20T05:40:13.284Z,12.27
2019-04-20T05:42:42.918Z,13.27
2019-04-20T05:45:11.605Z,11.50
2019-04-20T05:47:45.495Z,12.97
2019-04-20T05:50:08.351Z,12.93
2019-04-20T05:52:58.256Z,13.80
2019-04-20T05:55:21.006Z,10.67
2019-04-20T05:57:50.532Z,11.07
2019-04-20T06:00:19.180Z,12.90
2019-04-20T06:02:49.729Z,11.87
2019-04-20T06:05:28.865Z,14.43
2019-04-20T06:07:54.230Z,11.47
2019-04-20T06:10:31.806Z,9.63
2019-04-20T06:12:55.419Z,12.50
2019-04-20T06:15:40.713Z,11.33
2019-04-20T06:18:13.587Z,11.90
2019-04-20T06:20:47.783Z,10.77
2019-04-20T06:26:30.134Z,11.20
2019-04-20T06:28:35.299Z,11.97
2019-04-20T06:31:14.770Z,13.13
2019-04-20T06:36:53.546Z,12.00
2019-04-20T06:39:32.414Z,15.63
2019-04-20T06:49:36.781Z,11.23
2019-04-20T06:52:25.602Z,11.53
2019-04-20T06:54:48.636Z,11.87
2019-04-20T06:57:24.307Z,11.20
2019-04-20T06:59:53.520Z,12.23
2019-04-20T07:02:31.401Z,12.90
2019-04-20T07:05:06.990Z,11.27
2019-04-20T07:07:45.515Z,11.80
2019-04-20T07:10:08.865Z,11.97
2019-04-20T07:12:27.336Z,13.17
2019-04-20T07:14:52.982Z,12.57
2019-04-20T07:20:04.272Z,12.70
2019-04-20T07:22:46.203Z,12.30
2019-04-20T07:25:17.417Z,12.67
2019-04-20T07:27:49.068Z,12.63
2019-04-20T07:30:19.627Z,12.93
2019-04-20T07:32:52.672Z,11.77
2019-04-20T07:35:19.641Z,11.80
2019-04-20T07:40:24.395Z,12.13
2019-04-20T07:42:57.716Z,11.47
2019-04-20T07:45:30.861Z,11.77
2019-04-20T07:48:13.705Z,12.17
2019-04-20T07:50:26.157Z,11.20
2019-04-20T07:52:53.343Z,13.20
2019-04-20T07:57:57.950Z,12.43
2019-04-20T08:00:51.447Z,12.33
2019-04-20T08:03:23.003Z,13.43
2019-04-20T08:05:55.136Z,12.53
2019-04-20T08:08:32.674Z,12.83
2019-04-20T08:11:10.340Z,11.67
2019-04-20T08:13:45.757Z,10.63
2019-04-20T08:16:14.554Z,11.37
2019-04-20T08:18:45.871Z,11.30
2019-04-20T08:21:18.208Z,12.93
2019-04-20T08:23:44.596Z,12.57
2019-04-20T08:26:07.815Z,13.33
2019-04-20T08:28:46.545Z,11.67
2019-04-20T08:31:42.789Z,12.57
2019-04-20T08:34:28.254Z,13.83
2019-04-20T08:36:51.447Z,13.70
2019-04-20T08:41:56.169Z,13.70
2019-04-20T08:47:07.257Z,13.33
2019-04-20T08:49:35.439Z,13.07
2019-04-20T08:52:18.860Z,12.70
2019-04-20T08:54:26.063Z,13.07
2019-04-20T08:56:49.913Z,13.50
2019-04-20T08:59:14.069Z,14.63
2019-04-20T09:01:44.647Z,14.37
2019-04-20T09:04:20.774Z,13.30
2019-04-20T09:06:58.532Z,14.53
2019-04-20T09:09:44.517Z,13.43
2019-04-20T09:12:06.144Z,15.50
2019-04-20T09:14:21.353Z,14.43
2019-04-20T09:17:22.399Z,15.00
2019-04-20T09:19:52.737Z,14.27
2019-04-20T09:22:40.952Z,15.17
2019-04-20T09:27:44.839Z,15.53
2019-04-20T09:30:24.351Z,14.43
2019-04-20T09:33:06.866Z,14.10
2019-04-20T09:35:31.289Z,14.33
2019-04-20T09:38:16.645Z,14.27
2019-04-20T09:40:50.999Z,15.00
2019-04-20T09:43:08.812Z,14.07
2019-04-20T09:45:49.924Z,15.03
2019-04-20T09:48:25.268Z,13.90
2019-04-20T09:51:15.349Z,13.37
2019-04-20T09:53:31.423Z,14.07
2019-04-20T09:56:07.532Z,14.60
2019-04-20T09:58:38.078Z,13.67
2019-04-20T10:01:05.215Z,13.80
2019-04-20T10:03:24.909Z,14.53
2019-04-20T10:05:55.942Z,13.70
2019-04-20T10:08:25.977Z,13.80
2019-04-20T10:10:56.186Z,16.23
2019-04-20T10:13:27.184Z,15.03
2019-04-20T10:15:57.733Z,14.73
2019-04-20T10:18:27.991Z,15.00
2019-04-20T10:20:58.031Z,14.37
2019-04-20T10:23:27.820Z,14.40
2019-04-20T10:25:58.567Z,15.07
2019-04-20T10:28:29.635Z,13.77
2019-04-20T10:30:59.485Z,16.70
2019-04-20T10:33:29.158Z,13.80
2019-04-20T10:35:59.428Z,15.67
2019-04-20T10:38:33.968Z,14.10
2019-04-20T10:41:11.286Z,15.33
2019-04-20T10:43:35.055Z,15.00
2019-04-20T10:46:04.998Z,15.00
2019-04-20T10:48:40.282Z,15.27
2019-04-20T10:51:08.204Z,15.27
2019-04-20T10:53:38.326Z,14.70
2019-04-20T10:56:09.491Z,15.00
2019-04-20T10:58:40.022Z,15.37
2019-04-20T11:01:09.914Z,13.47
2019-04-20T11:03:40.608Z,14.70
2019-04-20T11:06:11.036Z,16.13
2019-04-20T11:08:40.878Z,14.63
2019-04-20T11:11:16.424Z,13.73
2019-04-20T11:13:41.742Z,13.97
2019-04-20T11:16:12.579Z,17.20
2019-04-20T11:18:43.248Z,15.40
2019-04-20T11:21:13.327Z,17.20
2019-04-20T11:23:44.411Z,16.80
2019-04-20T11:26:14.393Z,15.40
2019-04-20T11:28:44.215Z,15.10
2019-04-20T11:31:16.611Z,13.53
2019-04-20T11:33:47.956Z,13.07
2019-04-20T11:36:19.172Z,13.83
2019-04-20T11:38:51.090Z,14.40
2019-04-20T11:41:25.652Z,13.20
2019-04-20T11:43:53.807Z,13.00
2019-04-20T11:46:24.850Z,13.63
2019-04-20T11:48:55.312Z,11.43
2019-04-20T11:51:25.556Z,11.13
2019-04-20T11:53:56.314Z,12.63
2019-04-20T11:56:31.759Z,12.43
2019-04-20T11:58:58.879Z,10.30
2019-04-20T12:01:49.320Z,10.50
2019-04-20T12:04:26.119Z,9.20
2019-04-20T12:06:48.734Z,9.67
2019-04-20T12:09:19.034Z,9.20
2019-04-20T12:12:02.058Z,8.30
2019-04-20T12:14:20.744Z,10.00
2019-04-20T12:16:50.393Z,7.63
2019-04-20T12:19:20.733Z,8.33
2019-04-20T12:21:51.467Z,8.30
2019-04-20T12:24:22.532Z,7.90
2019-04-20T12:26:52.780Z,8.37
2019-04-20T12:29:23.676Z,9.03
2019-04-20T12:31:58.244Z,9.93
2019-04-20T12:34:24.712Z,9.20
2019-04-20T12:36:55.316Z,8.13
2019-04-20T12:39:24.990Z,8.53
2019-04-20T12:41:58.772Z,8.07
2019-04-20T12:44:26.183Z,8.20
2019-04-20T12:46:55.937Z,7.90
2019-04-20T12:49:27.593Z,7.93
2019-04-20T12:52:01.645Z,9.93
2019-04-20T12:54:29.331Z,8.73
2019-04-20T12:56:58.942Z,8.27
2019-04-20T12:59:29.644Z,7.83
2019-04-20T13:01:59.491Z,8.07
2019-04-20T13:04:30.153Z,8.33
2019-04-20T13:07:01.804Z,8.30
2019-04-20T13:09:36.753Z,7.53
2019-04-20T13:12:11.677Z,9.67
2019-04-20T13:15:06.993Z,8.37
2019-04-20T13:17:37.898Z,8.10
2019-04-20T13:20:10.101Z,8.23
2019-04-20T13:22:41.070Z,9.80
2019-04-20T13:25:11.035Z,8.57
2019-04-20T13:27:41.049Z,7.67
2019-04-20T13:30:11.374Z,9.07
2019-04-20T13:32:41.534Z,10.73
2019-04-20T13:35:12.186Z,8.60
2019-04-20T13:37:43.468Z,12.00
2019-04-20T13:40:15.569Z,14.07
2019-04-20T13:42:45.668Z,8.83
2019-04-20T13:45:17.018Z,8.97
2019-04-20T13:47:46.903Z,8.17
2019-04-20T13:50:17.976Z,8.03
2019-04-20T13:52:47.651Z,7.73
2019-04-20T13:55:19.329Z,7.57
2019-04-20T13:58:04.222Z,7.87
2019-04-20T14:00:43.204Z,10.47
2019-04-20T14:03:14.545Z,9.40
2019-04-20T14:05:44.713Z,10.47
2019-04-20T14:08:17.981Z,8.03
2019-04-20T14:10:47.575Z,8.37
2019-04-20T14:13:20.353Z,7.90
2019-04-20T14:15:49.230Z,8.10
2019-04-20T14:18:19.407Z,8.20
2019-04-20T14:20:50.437Z,8.27
2019-04-20T14:23:21.135Z,8.73
2019-04-20T14:25:51.145Z,8.03
2019-04-20T14:28:20.986Z,8.20
2019-04-20T14:30:51.951Z,8.67
2019-04-20T14:33:24.019Z,10.87
2019-04-20T14:35:53.021Z,10.30
2019-04-20T14:38:22.526Z,10.17
2019-04-20T14:40:52.586Z,10.27
2019-04-20T14:43:22.433Z,9.27
2019-04-20T14:45:52.491Z,9.70
2019-04-20T14:48:22.779Z,8.77
2019-04-20T14:50:53.785Z,12.43
2019-04-20T14:53:23.527Z,8.90
2019-04-20T14:55:53.632Z,10.40
2019-04-20T14:58:43.260Z,8.83
2019-04-20T15:01:22.940Z,8.93
2019-04-20T15:04:01.141Z,9.77
2019-04-20T15:06:23.890Z,11.63
2019-04-20T15:08:54.731Z,10.23
2019-04-20T15:11:24.967Z,10.30
2019-04-20T15:13:54.648Z,10.60
2019-04-20T15:16:24.725Z,12.23
2019-04-20T15:18:58.099Z,9.83
2019-04-20T15:21:33.537Z,9.83
2019-04-20T15:24:03.725Z,9.90
2019-04-20T15:26:34.298Z,9.77
2019-04-20T15:29:04.466Z,9.37
2019-04-20T15:31:34.579Z,8.97
2019-04-20T15:34:04.608Z,8.83
2019-04-20T15:36:35.762Z,11.20
2019-04-20T15:39:07.721Z,8.37
2019-04-20T15:41:37.537Z,8.33
2019-04-20T15:44:07.387Z,9.30
2019-04-20T15:46:38.286Z,12.73
2019-04-20T15:49:08.389Z,8.83
2019-04-20T15:51:39.650Z,11.63
2019-04-20T15:54:09.577Z,10.00
2019-04-20T15:56:44.584Z,8.43
2019-04-20T15:59:10.925Z,8.50
2019-04-20T16:01:45.145Z,8.97
2019-04-20T16:04:37.255Z,9.63
2019-04-20T16:07:05.323Z,9.17
2019-04-20T16:09:35.849Z,9.10
2019-04-20T16:12:06.796Z,9.37
2019-04-20T16:14:37.667Z,14.07
2019-04-20T16:17:10.431Z,9.63
2019-04-20T16:19:49.117Z,8.87
2019-04-20T16:22:11.941Z,10.60
2019-04-20T16:24:44.819Z,8.37
2019-04-20T16:27:29.683Z,8.40
2019-04-20T16:29:59.899Z,9.03
2019-04-20T16:32:30.402Z,8.20
2019-04-20T16:35:00.397Z,9.17
2019-04-20T16:37:30.549Z,9.33
2019-04-20T16:40:00.809Z,9.30
2019-04-20T16:42:32.194Z,11.60
2019-04-20T16:45:03.161Z,9.33
2019-04-20T16:47:34.298Z,8.60
2019-04-20T16:50:08.856Z,14.60
2019-04-20T16:52:39.020Z,10.07
2019-04-20T16:55:11.207Z,9.23
2019-04-20T16:57:40.146Z,10.40
2019-04-20T17:00:13.703Z,11.77
2019-04-20T17:02:44.589Z,9.60
2019-04-20T17:05:14.769Z,9.07
2019-04-20T17:07:52.904Z,8.67
2019-04-20T17:10:23.886Z,11.10
2019-04-20T17:12:53.765Z,11.33
2019-04-20T17:15:23.772Z,9.97
2019-04-20T17:17:55.374Z,9.57
2019-04-20T17:20:26.965Z,10.13
2019-04-20T17:22:56.497Z,10.10
2019-04-20T17:25:26.188Z,12.07
2019-04-20T17:28:13.236Z,13.40
2019-04-20T17:30:54.716Z,11.83
2019-04-20T17:33:47.430Z,11.57
2019-04-20T17:36:15.118Z,15.37
2019-04-20T17:38:47.111Z,14.20
2019-04-20T17:41:30.703Z,13.60
2019-04-20T17:44:01.441Z,19.67
2019-04-20T17:46:27.279Z,18.17
2019-04-20T17:49:00.806Z,22.47
2019-04-20T17:51:46.060Z,20.50
2019-04-20T17:53:54.568Z,16.90
2019-04-20T17:56:20.200Z,23.00
2019-04-20T17:58:50.272Z,18.40
2019-04-20T18:01:32.823Z,17.30
2019-04-20T18:04:31.145Z,15.87
2019-04-20T18:06:45.377Z,20.07
2019-04-20T18:09:11.551Z,14.17
2019-04-20T18:11:37.398Z,20.33
2019-04-20T18:14:23.015Z,12.53
2019-04-20T18:16:58.044Z,16.23
2019-04-20T18:19:23.918Z,12.80
2019-04-20T18:21:58.258Z,14.73
2019-04-20T18:24:50.733Z,14.53
2019-04-20T18:27:24.819Z,11.67
2019-04-20T18:29:45.574Z,14.00
2019-04-20T18:32:02.034Z,10.57
2019-04-20T18:34:34.193Z,11.90
2019-04-20T18:37:07.651Z,12.90
2019-04-20T18:39:43.880Z,13.53
2019-04-20T18:42:13.084Z,12.87
2019-04-20T18:45:06.054Z,15.53
2019-04-20T18:47:29.052Z,18.53
2019-04-20T18:49:52.852Z,15.87
2019-04-20T18:52:13.791Z,13.00
2019-04-20T18:54:47.517Z,15.20
2019-04-20T18:57:21.336Z,13.10
2019-04-20T18:59:50.856Z,13.73
2019-04-20T19:02:23.810Z,13.83
2019-04-20T19:04:50.069Z,13.80
2019-04-20T19:07:21.783Z,14.73
2019-04-20T19:09:53.275Z,12.93
2019-04-20T19:12:32.577Z,15.00
2019-04-20T19:15:13.485Z,18.00
2019-04-20T19:18:03.023Z,23.87
2019-04-20T19:20:29.033Z,25.90
2019-04-20T19:23:00.064Z,19.60
2019-04-20T19:25:33.131Z,16.73
2019-04-20T19:28:03.216Z,17.67
2019-04-20T19:30:41.304Z,14.07
2019-04-20T19:33:18.744Z,12.63
2019-04-20T19:35:46.609Z,11.90
2019-04-20T19:38:15.613Z,15.70
2019-04-20T19:40:53.868Z,12.33
2019-04-20T19:43:22.186Z,12.53
2019-04-20T19:46:24.141Z,11.10
2019-04-20T19:48:29.305Z,13.83
2019-04-20T19:51:16.162Z,13.07
2019-04-20T19:53:36.685Z,13.00
2019-04-20T19:56:03.978Z,14.00
2019-04-20T19:58:32.767Z,18.63
2019-04-20T20:00:55.784Z,13.83
2019-04-20T20:03:25.934Z,12.60
2019-04-20T20:05:57.650Z,17.73
2019-04-20T20:08:29.934Z,15.00
2019-04-20T20:11:01.270Z,15.53
2019-04-20T20:13:36.211Z,18.87
2019-04-20T20:16:09.681Z,13.50
2019-04-20T20:18:48.809Z,14.47
2019-04-20T20:21:20.125Z,15.43
2019-04-20T20:23:36.291Z,16.13
2019-04-20T20:26:09.026Z,18.13
2019-04-20T20:28:45.469Z,19.37
2019-04-20T20:31:21.821Z,19.70
2019-04-20T20:33:54.641Z,21.73
2019-04-20T20:36:19.355Z,18.60
2019-04-20T20:38:50.259Z,20.30
2019-04-20T20:41:25.629Z,22.17
2019-04-20T20:43:56.555Z,22.50
2019-04-20T20:46:28.753Z,18.93
2019-04-20T20:49:21.212Z,20.23
2019-04-20T20:51:44.259Z,29.23
2019-04-20T20:54:03.236Z,34.57
2019-04-20T20:56:29.226Z,30.67
2019-04-20T20:59:04.368Z,31.80
2019-04-20T21:01:37.780Z,34.53
2019-04-20T21:03:58.505Z,38.77
2019-04-20T21:06:28.736Z,31.87
2019-04-20T21:09:01.355Z,38.50
2019-04-20T21:11:33.645Z,32.90
2019-04-20T21:14:01.318Z,31.40
2019-04-20T21:16:33.374Z,36.00
2019-04-20T21:19:18.218Z,34.20
2019-04-20T21:21:45.429Z,37.77
2019-04-20T21:24:10.052Z,30.47
2019-04-20T21:26:42.120Z,30.50
2019-04-20T21:29:10.121Z,27.90
2019-04-20T21:31:43.790Z,38.17
2019-04-20T21:34:14.882Z,32.10
2019-04-20T21:36:43.183Z,32.17
2019-04-20T21:39:22.098Z,33.10
2019-04-20T21:41:49.731Z,38.33
2019-04-20T21:44:24.200Z,35.53
2019-04-20T21:46:51.114Z,33.47
2019-04-20T21:49:31.139Z,34.47
2019-04-20T21:51:57.427Z,30.33
2019-04-20T21:54:22.202Z,36.17
2019-04-20T21:56:56.157Z,31.10
2019-04-20T21:59:30.894Z,31.27
2019-04-20T22:02:03.383Z,31.10
2019-04-20T22:04:27.193Z,31.67
2019-04-20T22:06:58.220Z,31.00
2019-04-20T22:09:34.550Z,30.20
2019-04-20T22:12:00.157Z,33.40
2019-04-20T22:14:33.414Z,31.50
2019-04-20T22:17:03.633Z,33.40
2019-04-20T22:19:41.899Z,29.50
2019-04-20T22:22:16.117Z,37.90
2019-04-20T22:24:50.572Z,33.50
2019-04-20T22:27:15.823Z,35.27
2019-04-20T22:29:38.500Z,31.80
2019-04-20T22:32:11.534Z,32.80
2019-04-20T22:34:39.848Z,27.87
2019-04-20T22:37:15.308Z,29.50
2019-04-20T22:39:47.773Z,36.93
2019-04-20T22:42:16.151Z,33.77
2019-04-20T22:44:48.009Z,31.70
2019-04-20T22:47:22.348Z,31.33
2019-04-20T22:50:11.891Z,35.57
2019-04-20T22:52:39.620Z,35.57
2019-04-20T22:55:12.044Z,33.60
2019-04-20T22:57:36.369Z,34.63
2019-04-20T23:00:02.688Z,28.07
2019-04-20T23:02:26.442Z,32.97
2019-04-20T23:04:57.088Z,25.03
2019-04-20T23:07:26.849Z,25.73
2019-04-20T23:09:59.555Z,25.80
2019-04-20T23:12:29.267Z,21.70
2019-04-20T23:15:00.461Z,21.07
2019-04-20T23:17:38.157Z,20.43
2019-04-20T23:20:03.478Z,21.03
2019-04-20T23:22:36.952Z,24.33
2019-04-20T23:25:25.073Z,21.73
2019-04-20T23:28:00.299Z,21.53
2019-04-20T23:30:30.588Z,23.03
2019-04-20T23:32:57.945Z,22.53
2019-04-20T23:35:28.630Z,21.57
2019-04-20T23:38:05.526Z,20.20
2019-04-20T23:40:30.076Z,19.43
2019-04-20T23:43:10.233Z,21.83
2019-04-20T23:45:46.411Z,22.03
2019-04-20T23:48:23.642Z,21.00
2019-04-20T23:51:08.731Z,19.40
2019-04-20T23:53:40.180Z,22.63
2019-04-20T23:55:57.484Z,21.27
2019-04-20T23:58:30.888Z,20.20
